createdAt,value
2019-05-18T14:10:31.452Z,31.80
2019-05-18T14:13:36.353Z,31.50
2019-05-18T14:16:41.235Z,32.20
2019-05-18T14:19:46.172Z,32.90
2019-05-18T14:22:50.850Z,32.80
2019-05-18T14:25:55.618Z,33.10
2019-05-18T14:29:00.412Z,33.40
2019-05-18T14:32:05.250Z,33.30
2019-05-18T14:35:09.961Z,34.00
2019-05-18T14:38:14.737Z,33.70
2019-05-18T14:41:19.425Z,33.30
2019-05-18T14:44:24.387Z,33.20
2019-05-18T14:47:29.306Z,33.20
2019-05-18T14:50:34.055Z,33.40
2019-05-18T14:53:38.865Z,33.40
2019-05-18T14:56:43.720Z,32.90
2019-05-18T14:59:48.616Z,32.90
2019-05-18T15:02:53.554Z,32.80
2019-05-18T15:05:58.429Z,32.30
2019-05-18T15:09:04.123Z,31.60
2019-05-18T15:12:08.666Z,32.00
2019-05-18T15:15:13.885Z,31.90
2019-05-18T15:18:20.424Z,32.80
2019-05-18T15:21:25.202Z,33.60
2019-05-18T15:24:30.033Z,34.50
2019-05-18T15:27:34.854Z,34.70
2019-05-18T15:30:39.478Z,35.20
2019-05-18T15:33:46.410Z,35.10
2019-05-18T15:36:52.587Z,34.20
2019-05-18T15:39:57.370Z,35.30
2019-05-18T15:43:02.101Z,35.80
2019-05-18T15:46:06.813Z,35.80
2019-05-18T15:49:11.568Z,36.30
2019-05-18T15:52:16.368Z,36.00
2019-05-18T15:55:21.295Z,34.10
2019-05-18T15:58:27.933Z,33.70
2019-05-18T16:01:32.828Z,34.50
2019-05-18T16:04:37.546Z,34.50
2019-05-18T16:07:42.278Z,34.50
2019-05-18T16:10:48.063Z,32.00
2019-05-18T16:13:52.846Z,32.20
2019-05-18T16:16:57.690Z,32.10
2019-05-18T16:20:02.879Z,31.30
2019-05-18T16:23:07.842Z,31.00
2019-05-18T16:26:21.213Z,31.30
2019-05-18T16:29:19.255Z,32.20
2019-05-18T16:32:24.075Z,28.90
2019-05-18T16:35:28.950Z,28.90
2019-05-18T16:38:33.729Z,28.70
2019-05-18T16:41:38.561Z,28.60
2019-05-18T16:44:43.390Z,29.40
2019-05-18T16:47:48.126Z,28.80
2019-05-18T16:50:52.967Z,28.80
2019-05-18T16:53:57.791Z,29.60
2019-05-18T16:57:02.715Z,29.40
2019-05-18T17:00:08.277Z,29.50
2019-05-18T17:03:13.327Z,29.70
2019-05-18T17:06:18.129Z,29.90
2019-05-18T17:09:23.001Z,30.00
2019-05-18T17:12:27.994Z,30.60
2019-05-18T17:15:32.842Z,30.20
2019-05-18T17:18:37.542Z,30.90
2019-05-18T17:21:42.195Z,31.00
2019-05-18T17:24:47.002Z,31.50
2019-05-18T17:27:51.854Z,31.10
2019-05-18T17:30:56.802Z,31.60
2019-05-18T17:34:01.450Z,32.90
2019-05-18T17:37:06.148Z,32.30
2019-05-18T17:40:10.599Z,32.50
2019-05-18T17:43:17.130Z,32.60
2019-05-18T17:46:21.946Z,32.80
2019-05-18T17:49:27.223Z,33.00
2019-05-18T17:52:32.117Z,33.40
2019-05-18T17:55:36.750Z,33.60
2019-05-18T17:58:41.619Z,32.50
2019-05-18T18:01:46.411Z,32.80
2019-05-18T18:04:54.108Z,32.90
2019-05-18T18:07:57.518Z,33.10
2019-05-18T18:11:02.352Z,33.10
2019-05-18T18:14:07.278Z,33.20
2019-05-18T18:17:11.985Z,33.30
2019-05-18T18:20:16.736Z,33.50
2019-05-18T18:23:21.475Z,33.70
2019-05-18T18:26:26.392Z,33.70
2019-05-18T18:29:31.226Z,33.90
2019-05-18T18:32:35.864Z,34.00
2019-05-18T18:35:40.675Z,34.20
2019-05-18T18:38:45.526Z,34.20
2019-05-18T18:41:50.263Z,34.40
2019-05-18T18:44:55.177Z,34.50
2019-05-18T18:48:00.123Z,34.60
2019-05-18T18:51:05.030Z,34.70
2019-05-18T18:54:12.549Z,34.60
2019-05-18T18:57:16.278Z,34.90
2019-05-18T19:00:20.860Z,35.00
2019-05-18T19:03:25.679Z,35.00
2019-05-18T19:06:30.540Z,35.10
2019-05-18T19:09:35.458Z,35.10
2019-05-18T19:12:40.289Z,35.00
2019-05-18T19:15:45.031Z,35.20
2019-05-18T19:18:49.848Z,35.30
2019-05-18T19:21:54.604Z,35.50
2019-05-18T19:24:59.405Z,35.60
2019-05-18T19:28:04.338Z,35.60
2019-05-18T19:31:09.091Z,35.90
2019-05-18T19:34:13.912Z,35.90
2019-05-18T19:37:18.374Z,35.70
2019-05-18T19:40:22.785Z,35.70
2019-05-18T19:43:27.578Z,35.70
2019-05-18T19:46:32.320Z,35.60
2019-05-18T19:49:37.044Z,35.70
2019-05-18T19:52:42.913Z,35.60
2019-05-18T19:55:47.592Z,35.70
2019-05-18T19:58:52.350Z,35.80
2019-05-18T20:01:56.954Z,35.90
2019-05-18T20:05:07.758Z,36.10
2019-05-18T20:08:08.053Z,35.90
2019-05-18T20:11:12.770Z,35.70
2019-05-18T20:14:17.613Z,35.80
2019-05-18T20:17:22.357Z,35.30
2019-05-18T20:20:27.113Z,36.00
2019-05-18T20:23:31.801Z,36.10
2019-05-18T20:26:36.788Z,36.10
2019-05-18T20:29:41.484Z,36.30
2019-05-18T20:32:46.113Z,36.20
2019-05-18T20:35:51.022Z,35.90
2019-05-18T20:38:55.786Z,36.50
2019-05-18T20:42:00.369Z,35.70
2019-05-18T20:45:05.211Z,35.60
2019-05-18T20:48:09.882Z,35.70
2019-05-18T20:51:14.654Z,35.70
